Airfield :







YOU CAN JOIN US ON...

 
LOGIN :

Register | Disclaimer

   EN    FR    IT 

 









Legend :    VFR   Marginal VFR   IFR   Intensive IFR   Very Intensive IFR
Visi :
Ceiling :
>= 8 km
>= 3000ft
5 to 8 km
1000 to 3000 ft
1500m to 5 km
500 to 1000 ft
800 to 1500m
200 to 500 ft
< 800m
< 200 ft
Symbols :   Thunderstorms  Fog  Heavy snow  Heavy precipitations  Wind > 20 kt







- Airport Elevation : 215 ft
- IATA code : MSS


KMSS - Massena International Richards Field

CURRENT METAR :
  • 200853Z AUTO 03003KT 10SM CLR 17/14 A2966 RMK AO2 SLP042 T01670144 56010

EXPIRED METARs :
  • 200753Z AUTO 06003KT 10SM CLR 17/15 A2966 RMK AO2 SLP044 T01720150
  • 200653Z AUTO 05004KT 10SM FEW060 17/15 A2968 RMK AO2 SLP047 T01720150

TAF KMSS
Valid from the 20 at 06:00 until the 21 at 06:00 UTC


200539Z 2006/2106 VRB03KT P6SM SCT120
FM201000 VRB04KT P6SM BKN030
FM201400 03006KT P6SM VCSH OVC020
FM201600 03008KT 5SM -RA BR OVC015
FM210300 03005KT P6SM VCSH OVC030
KZBW FIR / North America



MET'MAP, your aeronautical weather chart ! - Copyright ORBIFLY December 2007 - Disclaimer

ORBIFLY MET'MAP TEAM :

Programming & Development : Alexandra Zaïnal
Concept & Development : Baudouin d'Aumeries
Co-Development & Prog : Marc-Olivier Méhu
Technical & hardware support : Manuel Goepfert

Contact : metmap@orbifly.com




SOURCES & CREDITS :

   NOAA